createdAt,value
2024-01-24T00:00:57.206Z,99873.34
2024-01-24T00:03:24.048Z,99858.69
2024-01-24T00:05:52.066Z,99850.41
2024-01-24T00:08:18.672Z,99846.81
2024-01-24T00:10:45.594Z,99845.81
2024-01-24T00:13:12.117Z,99841.31
2024-01-24T00:15:39.310Z,99837.13
2024-01-24T00:18:05.877Z,99839.88
2024-01-24T00:20:32.406Z,99836.25
2024-01-24T00:22:59.023Z,99820.50
2024-01-24T00:25:25.487Z,99821.13
2024-01-24T00:27:52.124Z,99812.75
2024-01-24T00:30:18.708Z,99799.97
2024-01-24T00:32:45.485Z,99785.44
2024-01-24T00:35:12.130Z,99785.50
2024-01-24T00:37:38.642Z,99779.41
2024-01-24T00:40:05.733Z,99786.56
2024-01-24T00:42:32.257Z,99787.41
2024-01-24T00:44:59.100Z,99772.69
2024-01-24T00:47:25.778Z,99778.91
2024-01-24T00:49:52.287Z,99803.81
2024-01-24T00:52:18.918Z,99785.81
2024-01-24T00:54:45.481Z,99777.75
2024-01-24T00:57:12.833Z,99759.53
2024-01-24T00:59:39.556Z,99762.13
2024-01-24T01:02:06.150Z,99761.41
2024-01-24T01:04:32.794Z,99762.97
2024-01-24T01:06:59.405Z,99758.91
2024-01-24T01:09:25.940Z,99732.66
2024-01-24T01:11:52.534Z,99741.19
2024-01-24T01:14:19.135Z,99747.72
2024-01-24T01:16:46.089Z,99743.25
2024-01-24T01:19:12.581Z,99732.66
2024-01-24T01:21:41.392Z,99738.50
2024-01-24T01:24:09.691Z,99731.25
2024-01-24T01:26:36.303Z,99730.78
2024-01-24T01:29:03.277Z,99723.00
2024-01-24T01:31:29.749Z,99711.91
2024-01-24T01:33:57.014Z,99710.41
2024-01-24T01:36:24.078Z,99692.69
2024-01-24T01:38:51.424Z,99684.75
2024-01-24T01:41:18.616Z,99678.97
2024-01-24T01:43:45.927Z,99663.06
2024-01-24T01:46:19.444Z,99647.94
2024-01-24T01:48:46.474Z,99644.31
2024-01-24T01:51:13.932Z,99634.94
2024-01-24T01:53:40.756Z,99624.09
2024-01-24T01:56:10.159Z,99596.34
2024-01-24T01:58:38.367Z,99628.78
2024-01-24T02:01:07.212Z,99616.66
2024-01-24T02:03:34.238Z,99637.50
2024-01-24T02:06:01.775Z,99629.31
2024-01-24T02:08:28.737Z,99607.53
2024-01-24T02:10:57.035Z,99607.97
2024-01-24T02:13:23.573Z,99608.28
2024-01-24T02:15:50.431Z,99603.41
2024-01-24T02:18:17.097Z,99597.28
2024-01-24T02:20:44.770Z,99596.91
2024-01-24T02:23:13.378Z,99591.19
2024-01-24T02:25:39.929Z,99590.31
2024-01-24T02:28:06.704Z,99591.50
2024-01-24T02:30:33.358Z,99578.34
2024-01-24T02:33:01.734Z,99574.47
2024-01-24T02:35:31.833Z,99582.78
2024-01-24T02:37:58.737Z,99572.03
2024-01-24T02:40:25.400Z,99543.25
2024-01-24T02:42:52.397Z,99531.72
2024-01-24T02:45:19.291Z,99526.81
2024-01-24T02:47:46.619Z,99522.19
2024-01-24T02:50:15.018Z,99515.63
2024-01-24T02:52:41.992Z,99528.53
2024-01-24T02:55:08.863Z,99522.31
2024-01-24T02:57:35.709Z,99508.69
2024-01-24T03:00:02.216Z,99527.63
2024-01-24T03:02:28.764Z,99506.28
2024-01-24T03:04:55.370Z,99516.22
2024-01-24T03:07:21.919Z,99508.38
2024-01-24T03:09:48.737Z,99497.91
2024-01-24T03:12:15.304Z,99506.03
2024-01-24T03:14:41.782Z,99498.66
2024-01-24T03:17:09.285Z,99502.22
2024-01-24T03:19:36.186Z,99495.47
2024-01-24T03:22:02.948Z,99493.22
2024-01-24T03:24:29.493Z,99491.31
2024-01-24T03:26:55.992Z,99473.91
2024-01-24T03:29:22.748Z,99489.81
2024-01-24T03:31:49.212Z,99478.03
2024-01-24T03:34:17.073Z,99494.28
2024-01-24T03:36:43.656Z,99502.63
2024-01-24T03:39:10.773Z,99486.72
2024-01-24T03:41:40.721Z,99463.47
2024-01-24T03:44:07.556Z,99490.97
2024-01-24T03:46:34.185Z,99479.34
2024-01-24T03:49:00.726Z,99479.53
2024-01-24T03:51:29.418Z,99495.06
2024-01-24T03:53:55.934Z,99491.28
2024-01-24T03:56:22.509Z,99466.00
2024-01-24T03:58:48.993Z,99474.94
2024-01-24T04:01:17.158Z,99488.50
2024-01-24T04:03:43.746Z,99473.91
2024-01-24T04:06:10.330Z,99481.28
2024-01-24T04:08:36.920Z,99482.81
2024-01-24T04:11:03.517Z,99457.63
2024-01-24T04:13:30.174Z,99443.78
2024-01-24T04:15:56.675Z,99447.31
2024-01-24T04:18:23.409Z,99461.41
2024-01-24T04:20:49.976Z,99450.13
2024-01-24T04:23:16.581Z,99452.81
2024-01-24T04:25:43.041Z,99451.09
2024-01-24T04:28:10.350Z,99451.81
2024-01-24T04:30:37.031Z,99462.81
2024-01-24T04:33:03.953Z,99454.59
2024-01-24T04:35:30.700Z,99456.06
2024-01-24T04:37:57.249Z,99471.25
2024-01-24T04:40:23.839Z,99457.59
2024-01-24T04:42:50.326Z,99478.34
2024-01-24T04:45:17.353Z,99482.41
2024-01-24T04:47:44.399Z,99467.06
2024-01-24T04:50:12.369Z,99464.41
2024-01-24T04:52:39.511Z,99460.75
2024-01-24T04:55:12.173Z,99459.13
2024-01-24T04:57:40.115Z,99450.31
2024-01-24T05:00:10.767Z,99475.03
2024-01-24T05:02:37.656Z,99462.56
2024-01-24T05:05:07.753Z,99456.47
2024-01-24T05:07:35.629Z,99445.84
2024-01-24T05:10:04.633Z,99428.03
2024-01-24T05:12:31.986Z,99422.34
2024-01-24T05:14:58.824Z,99420.63
2024-01-24T05:17:25.354Z,99419.69
2024-01-24T05:19:52.037Z,99444.09
2024-01-24T05:22:18.783Z,99443.16
2024-01-24T05:24:46.548Z,99442.41
2024-01-24T05:27:14.089Z,99453.16
2024-01-24T05:29:40.857Z,99438.16
2024-01-24T05:32:07.645Z,99416.13
2024-01-24T05:34:34.315Z,99403.94
2024-01-24T05:37:01.132Z,99416.34
2024-01-24T05:39:27.780Z,99424.22
2024-01-24T05:41:54.452Z,99418.50
2024-01-24T05:44:21.307Z,99442.00
2024-01-24T05:46:47.918Z,99445.63
2024-01-24T05:49:14.529Z,99446.19
2024-01-24T05:51:42.098Z,99444.63
2024-01-24T05:54:08.610Z,99458.22
2024-01-24T05:56:36.418Z,99459.47
2024-01-24T05:59:03.093Z,99465.25
2024-01-24T06:01:29.896Z,99451.63
2024-01-24T06:03:56.734Z,99455.88
2024-01-24T06:06:23.367Z,99480.22
2024-01-24T06:08:50.097Z,99485.75
2024-01-24T06:11:18.251Z,99473.72
2024-01-24T06:13:44.987Z,99468.78
2024-01-24T06:16:11.651Z,99461.31
2024-01-24T06:18:38.311Z,99475.00
2024-01-24T06:21:05.082Z,99482.03
2024-01-24T06:23:31.645Z,99483.28
2024-01-24T06:25:58.244Z,99475.31
2024-01-24T06:28:24.679Z,99484.56
2024-01-24T06:30:52.841Z,99505.19
2024-01-24T06:33:19.597Z,99502.22
2024-01-24T06:35:46.130Z,99493.34
2024-01-24T06:38:13.630Z,99494.75
2024-01-24T06:40:40.335Z,99481.53
2024-01-24T06:43:07.180Z,99488.03
2024-01-24T06:45:35.037Z,99481.25
2024-01-24T06:48:02.663Z,99476.78
2024-01-24T06:50:30.848Z,99491.34
2024-01-24T06:52:59.371Z,99488.25
2024-01-24T06:55:26.115Z,99488.13
2024-01-24T06:57:52.717Z,99470.59
2024-01-24T07:00:20.205Z,99494.31
2024-01-24T07:02:46.849Z,99493.69
2024-01-24T07:05:14.145Z,99497.28
2024-01-24T07:07:40.634Z,99511.00
2024-01-24T07:10:12.730Z,99494.84
2024-01-24T07:12:46.025Z,99534.69
2024-01-24T07:15:13.552Z,99549.22
2024-01-24T07:17:40.847Z,99541.16
2024-01-24T07:20:08.310Z,99561.19
2024-01-24T07:22:35.005Z,99530.31
2024-01-24T07:25:02.731Z,99513.63
2024-01-24T07:27:31.750Z,99529.66
2024-01-24T07:29:59.113Z,99533.47
2024-01-24T07:32:25.970Z,99545.38
2024-01-24T07:34:52.562Z,99541.69
2024-01-24T07:37:19.284Z,99536.72
2024-01-24T07:39:45.773Z,99560.41
2024-01-24T07:42:12.250Z,99560.06
2024-01-24T07:44:38.889Z,99571.09
2024-01-24T07:47:05.790Z,99568.81
2024-01-24T07:49:37.576Z,99593.25
2024-01-24T07:52:05.857Z,99614.25
2024-01-24T07:54:32.737Z,99627.53
2024-01-24T07:56:59.388Z,99647.94
2024-01-24T07:59:26.033Z,99675.25
2024-01-24T08:01:52.754Z,99724.56
2024-01-24T08:04:19.694Z,99696.88
2024-01-24T08:06:49.155Z,99698.81
2024-01-24T08:09:18.928Z,99713.25
2024-01-24T08:11:48.286Z,99694.25
2024-01-24T08:14:15.881Z,99691.84
2024-01-24T08:17:02.836Z,99694.31
2024-01-24T08:19:29.607Z,99714.16
2024-01-24T08:21:56.810Z,99722.38
2024-01-24T08:24:23.485Z,99714.34
2024-01-24T08:26:51.303Z,99687.88
2024-01-24T08:29:25.862Z,99694.31
2024-01-24T08:31:58.631Z,99704.00
2024-01-24T08:34:25.496Z,99685.97
2024-01-24T08:36:52.057Z,99697.75
2024-01-24T08:39:18.833Z,99688.44
2024-01-24T08:41:45.347Z,99716.88
2024-01-24T08:44:11.919Z,99727.28
2024-01-24T08:46:38.568Z,99724.81
2024-01-24T08:49:05.168Z,99727.28
2024-01-24T08:51:33.120Z,99746.59
2024-01-24T08:54:00.751Z,99772.59
2024-01-24T08:56:27.519Z,99758.41
2024-01-24T08:58:54.002Z,99744.97
2024-01-24T09:01:21.648Z,99767.09
2024-01-24T09:03:49.753Z,99770.25
2024-01-24T09:06:17.019Z,99784.47
2024-01-24T09:08:46.613Z,99759.22
2024-01-24T09:11:14.045Z,99788.25
2024-01-24T09:13:40.790Z,99804.94
2024-01-24T09:16:07.873Z,99803.84
2024-01-24T09:18:35.042Z,99799.72
2024-01-24T09:21:02.642Z,99805.41
2024-01-24T09:23:29.684Z,99827.09
2024-01-24T09:25:56.424Z,99816.81
2024-01-24T09:28:23.380Z,99833.00
2024-01-24T09:30:50.632Z,99811.16
2024-01-24T09:33:18.107Z,99786.59
2024-01-24T09:35:48.066Z,99805.81
2024-01-24T09:38:14.997Z,99800.22
2024-01-24T09:40:42.072Z,99816.56
2024-01-24T09:43:10.507Z,99795.84
2024-01-24T09:45:43.569Z,99795.78
2024-01-24T09:48:12.682Z,99813.38
2024-01-24T09:50:40.758Z,99816.50
2024-01-24T09:53:09.879Z,99819.72
2024-01-24T09:55:36.702Z,99809.38
2024-01-24T09:58:03.532Z,99808.97
2024-01-24T10:00:30.138Z,99835.69
2024-01-24T10:02:57.142Z,99819.59
2024-01-24T10:05:26.635Z,99829.59
2024-01-24T10:07:54.986Z,99827.50
2024-01-24T10:10:21.798Z,99834.06
2024-01-24T10:12:48.553Z,99840.63
2024-01-24T10:15:15.358Z,99833.03
2024-01-24T10:17:43.631Z,99837.06
2024-01-24T10:20:13.261Z,99832.59
2024-01-24T10:22:40.893Z,99839.94
2024-01-24T10:25:11.112Z,99846.41
2024-01-24T10:27:41.254Z,99854.34
2024-01-24T10:30:13.549Z,99844.44
2024-01-24T10:32:43.670Z,99863.81
2024-01-24T10:35:10.854Z,99857.00
2024-01-24T10:37:38.042Z,99855.41
2024-01-24T10:40:07.088Z,99853.88
2024-01-24T10:42:40.574Z,99868.59
2024-01-24T10:45:08.028Z,99851.53
2024-01-24T10:47:37.724Z,99868.03
2024-01-24T10:50:07.473Z,99847.25
2024-01-24T10:52:34.615Z,99872.78
2024-01-24T10:55:07.330Z,99877.53
2024-01-24T10:57:35.994Z,99875.75
2024-01-24T11:00:07.593Z,99885.63
2024-01-24T11:02:34.406Z,99870.44
2024-01-24T11:05:05.653Z,99872.19
2024-01-24T11:07:41.767Z,99880.72
2024-01-24T11:10:14.516Z,99875.59
2024-01-24T11:12:41.286Z,99876.53
2024-01-24T11:15:09.495Z,99867.22
2024-01-24T11:17:37.041Z,99879.34
2024-01-24T11:20:08.293Z,99870.06
2024-01-24T11:22:35.372Z,99881.66
2024-01-24T11:25:02.404Z,99859.88
2024-01-24T11:27:38.969Z,99869.47
2024-01-24T11:30:07.257Z,99886.09
2024-01-24T11:32:59.747Z,99875.34
2024-01-24T11:35:54.995Z,99913.50
2024-01-24T11:38:26.625Z,99894.53
2024-01-24T11:41:11.962Z,99912.19
2024-01-24T11:43:40.294Z,99914.00
2024-01-24T11:46:09.849Z,99917.53
2024-01-24T11:48:39.896Z,99915.91
2024-01-24T11:51:11.103Z,99925.94
2024-01-24T11:53:38.124Z,99927.28
2024-01-24T11:56:06.847Z,99936.53
2024-01-24T11:58:34.420Z,99945.69
2024-01-24T12:01:03.302Z,99949.63
2024-01-24T12:03:31.060Z,99955.88
2024-01-24T12:05:58.907Z,99967.63
2024-01-24T12:08:25.738Z,99951.06
2024-01-24T12:10:52.701Z,99954.66
2024-01-24T12:13:22.262Z,99934.25
2024-01-24T12:15:49.325Z,99950.13
2024-01-24T12:18:19.340Z,99966.19
2024-01-24T12:20:49.927Z,99967.53
2024-01-24T12:23:17.681Z,99967.25
2024-01-24T12:25:45.175Z,99975.06
2024-01-24T12:28:13.157Z,99986.22
2024-01-24T12:30:48.609Z,99991.00
2024-01-24T12:33:17.394Z,99997.00
2024-01-24T12:35:51.398Z,99986.22
2024-01-24T12:38:18.975Z,99988.47
2024-01-24T12:40:54.911Z,99981.94
2024-01-24T12:43:24.067Z,99993.91
2024-01-24T12:45:52.608Z,99985.03
2024-01-24T12:48:22.832Z,100001.75
2024-01-24T12:50:50.669Z,99982.38
2024-01-24T12:53:17.715Z,99994.16
2024-01-24T12:55:44.584Z,100014.44
2024-01-24T12:58:11.266Z,100005.72
2024-01-24T13:00:38.321Z,100018.41
2024-01-24T13:03:06.490Z,100019.81
2024-01-24T13:05:42.089Z,100007.59
2024-01-24T13:08:13.705Z,100018.78
2024-01-24T13:10:44.336Z,100013.91
2024-01-24T13:13:12.154Z,100014.84
2024-01-24T13:15:40.313Z,100017.88
2024-01-24T13:18:08.781Z,100021.50
2024-01-24T13:20:35.704Z,100044.53
2024-01-24T13:23:02.896Z,100048.72
2024-01-24T13:25:29.591Z,100039.66
2024-01-24T13:27:56.774Z,100044.38
2024-01-24T13:30:23.421Z,100073.81
2024-01-24T13:32:50.415Z,100056.25
2024-01-24T13:35:17.288Z,100037.41
2024-01-24T13:37:44.957Z,100053.09
2024-01-24T13:40:12.765Z,100051.69
2024-01-24T13:42:40.616Z,100053.22
2024-01-24T13:45:07.713Z,100064.53
2024-01-24T13:47:34.380Z,100065.56
2024-01-24T13:50:01.202Z,100050.13
2024-01-24T13:52:27.997Z,100071.56
2024-01-24T13:54:54.799Z,100073.19
2024-01-24T13:57:21.539Z,100061.19
2024-01-24T13:59:48.080Z,100067.78
2024-01-24T14:02:14.788Z,100073.09
2024-01-24T14:04:41.603Z,100082.84
2024-01-24T14:07:08.670Z,100080.13
2024-01-24T14:09:37.299Z,100086.25
2024-01-24T14:12:04.517Z,100075.91
2024-01-24T14:14:32.533Z,100079.69
2024-01-24T14:16:59.574Z,100100.81
2024-01-24T14:19:26.873Z,100115.06
2024-01-24T14:21:54.041Z,100077.34
2024-01-24T14:24:21.643Z,100124.97
2024-01-24T14:26:49.773Z,100119.22
2024-01-24T14:29:16.806Z,100132.16
2024-01-24T14:31:43.499Z,100120.00
2024-01-24T14:34:10.529Z,100137.63
2024-01-24T14:36:38.111Z,100125.13
2024-01-24T14:39:05.616Z,100142.75
2024-01-24T14:41:32.735Z,100150.47
2024-01-24T14:43:59.245Z,100160.03
2024-01-24T14:46:26.272Z,100158.66
2024-01-24T14:48:53.038Z,100159.88
2024-01-24T14:51:21.053Z,100157.47
2024-01-24T14:53:47.697Z,100158.91
2024-01-24T14:56:14.435Z,100182.03
2024-01-24T14:58:41.904Z,100187.41
2024-01-24T15:01:08.992Z,100192.63
2024-01-24T15:03:35.696Z,100207.78
2024-01-24T15:06:02.191Z,100202.97
2024-01-24T15:08:28.804Z,100217.47
2024-01-24T15:10:55.629Z,100209.19
2024-01-24T15:13:22.364Z,100214.44
2024-01-24T15:15:50.964Z,100209.59
2024-01-24T15:18:17.928Z,100222.59
2024-01-24T15:20:53.834Z,100219.03
2024-01-24T15:23:29.755Z,100236.34
2024-01-24T15:25:57.169Z,100229.41
2024-01-24T15:28:23.859Z,100231.66
2024-01-24T15:30:50.914Z,100261.56
2024-01-24T15:33:19.420Z,100254.91
2024-01-24T15:35:46.827Z,100256.78
2024-01-24T15:38:13.852Z,100250.22
2024-01-24T15:40:40.629Z,100256.16
2024-01-24T15:43:10.038Z,100264.75
2024-01-24T15:45:37.249Z,100258.03
2024-01-24T15:48:04.502Z,100276.28
2024-01-24T15:50:31.394Z,100270.38
2024-01-24T15:52:58.038Z,100282.44
2024-01-24T15:55:24.844Z,100280.66
2024-01-24T15:57:51.913Z,100289.09
2024-01-24T16:00:21.210Z,100307.56
2024-01-24T16:02:48.240Z,100312.81
2024-01-24T16:05:14.791Z,100295.94
2024-01-24T16:07:41.610Z,100291.13
2024-01-24T16:10:08.491Z,100291.75
2024-01-24T16:12:35.278Z,100306.47
2024-01-24T16:15:02.359Z,100310.97
2024-01-24T16:17:28.998Z,100309.63
2024-01-24T16:19:55.938Z,100316.50
2024-01-24T16:22:32.533Z,100307.53
2024-01-24T16:25:02.818Z,100316.66
2024-01-24T16:27:29.595Z,100326.28
2024-01-24T16:29:57.160Z,100335.00
2024-01-24T16:32:23.775Z,100335.66
2024-01-24T16:34:50.422Z,100333.50
2024-01-24T16:37:17.430Z,100342.22
2024-01-24T16:39:44.300Z,100341.72
2024-01-24T16:42:10.785Z,100333.59
2024-01-24T16:44:37.536Z,100339.88
2024-01-24T16:47:04.139Z,100359.84
2024-01-24T16:49:32.053Z,100369.53
2024-01-24T16:51:58.758Z,100370.28
2024-01-24T16:54:25.249Z,100368.78
2024-01-24T16:56:51.874Z,100366.88
2024-01-24T16:59:18.405Z,100371.06
2024-01-24T17:01:45.572Z,100365.50
2024-01-24T17:04:12.172Z,100368.81
2024-01-24T17:06:40.201Z,100383.94
2024-01-24T17:09:07.519Z,100394.19
2024-01-24T17:11:34.100Z,100406.38
2024-01-24T17:14:00.593Z,100404.00
2024-01-24T17:16:27.110Z,100389.44
2024-01-24T17:18:53.727Z,100404.88
2024-01-24T17:21:20.221Z,100413.38
2024-01-24T17:23:46.919Z,100415.13
2024-01-24T17:26:13.682Z,100405.56
2024-01-24T17:28:40.348Z,100420.63
2024-01-24T17:31:06.932Z,100420.81
2024-01-24T17:33:33.748Z,100426.94
2024-01-24T17:36:00.274Z,100440.19
2024-01-24T17:38:28.810Z,100435.41
2024-01-24T17:40:55.745Z,100451.16
2024-01-24T17:43:22.488Z,100444.63
2024-01-24T17:45:49.046Z,100450.94
2024-01-24T17:48:17.107Z,100457.44
2024-01-24T17:50:43.683Z,100454.75
2024-01-24T17:53:12.959Z,100472.56
2024-01-24T17:55:39.509Z,100470.56
2024-01-24T17:58:06.269Z,100475.38
2024-01-24T18:00:34.071Z,100478.75
2024-01-24T18:03:00.986Z,100467.03
2024-01-24T18:05:27.896Z,100482.50
2024-01-24T18:07:56.680Z,100482.28
2024-01-24T18:10:23.240Z,100477.53
2024-01-24T18:12:49.904Z,100482.38
2024-01-24T18:15:18.157Z,100470.47
2024-01-24T18:17:44.641Z,100484.91
2024-01-24T18:20:11.460Z,100476.53
2024-01-24T18:22:37.954Z,100482.47
2024-01-24T18:25:05.156Z,100478.94
2024-01-24T18:27:31.989Z,100481.22
2024-01-24T18:29:59.007Z,100472.44
2024-01-24T18:32:25.505Z,100476.03
2024-01-24T18:34:52.139Z,100493.97
2024-01-24T18:37:18.835Z,100491.41
2024-01-24T18:39:47.470Z,100487.34
2024-01-24T18:42:14.053Z,100495.63
2024-01-24T18:44:40.713Z,100509.94
2024-01-24T18:47:07.568Z,100497.50
2024-01-24T18:49:34.491Z,100499.63
2024-01-24T18:52:01.487Z,100500.22
2024-01-24T18:54:28.159Z,100509.88
2024-01-24T18:56:54.867Z,100507.84
2024-01-24T18:59:21.330Z,100519.22
2024-01-24T19:01:49.158Z,100524.66
2024-01-24T19:04:16.859Z,100530.06
2024-01-24T19:06:43.922Z,100529.63
2024-01-24T19:09:10.574Z,100534.84
2024-01-24T19:11:37.508Z,100530.88
2024-01-24T19:14:05.059Z,100544.00
2024-01-24T19:16:32.132Z,100529.03
2024-01-24T19:18:59.847Z,100541.22
2024-01-24T19:21:26.413Z,100545.78
2024-01-24T19:23:52.883Z,100546.91
2024-01-24T19:26:19.646Z,100568.81
2024-01-24T19:28:47.252Z,100547.69
2024-01-24T19:31:13.926Z,100550.88
2024-01-24T19:33:40.774Z,100553.59
2024-01-24T19:36:07.606Z,100545.28
2024-01-24T19:38:34.863Z,100539.69
2024-01-24T19:41:01.478Z,100544.84
2024-01-24T19:43:27.952Z,100561.59
2024-01-24T19:45:54.627Z,100550.34
2024-01-24T19:48:21.501Z,100538.53
2024-01-24T19:50:48.100Z,100549.00
2024-01-24T19:53:17.797Z,100548.81
2024-01-24T19:55:50.331Z,100538.25
2024-01-24T19:58:17.230Z,100541.06
2024-01-24T20:00:43.812Z,100540.31
2024-01-24T20:03:10.340Z,100543.50
2024-01-24T20:05:38.064Z,100545.63
2024-01-24T20:08:05.241Z,100539.44
2024-01-24T20:10:31.730Z,100548.06
2024-01-24T20:12:58.313Z,100553.44
2024-01-24T20:15:26.114Z,100551.38
2024-01-24T20:17:53.871Z,100551.66
2024-01-24T20:20:20.651Z,100559.31
2024-01-24T20:22:47.133Z,100554.03
2024-01-24T20:25:14.025Z,100551.38
2024-01-24T20:27:40.788Z,100560.50
2024-01-24T20:30:08.449Z,100546.38
2024-01-24T20:32:42.463Z,100565.81
2024-01-24T20:35:12.137Z,100555.44
2024-01-24T20:37:38.933Z,100560.25
2024-01-24T20:40:06.365Z,100566.78
2024-01-24T20:42:32.954Z,100557.19
2024-01-24T20:44:59.741Z,100569.75
2024-01-24T20:47:27.082Z,100561.13
2024-01-24T20:49:55.663Z,100584.56
2024-01-24T20:52:22.526Z,100568.53
2024-01-24T20:54:49.279Z,100566.56
2024-01-24T20:57:16.628Z,100580.16
2024-01-24T20:59:43.262Z,100573.06
2024-01-24T21:02:10.060Z,100586.31
2024-01-24T21:04:37.294Z,100587.56
2024-01-24T21:07:05.316Z,100579.34
2024-01-24T21:09:33.898Z,100593.81
2024-01-24T21:12:00.613Z,100592.41
2024-01-24T21:14:27.081Z,100598.75
2024-01-24T21:16:53.594Z,100597.59
2024-01-24T21:19:25.002Z,100596.91
2024-01-24T21:21:52.847Z,100600.34
2024-01-24T21:24:19.573Z,100582.50
2024-01-24T21:26:47.051Z,100589.06
2024-01-24T21:29:13.837Z,100591.53
2024-01-24T21:31:47.294Z,100586.13
2024-01-24T21:34:14.300Z,100579.72
2024-01-24T21:36:47.582Z,100594.25
2024-01-24T21:39:15.319Z,100593.38
2024-01-24T21:41:41.761Z,100597.50
2024-01-24T21:44:08.277Z,100581.28
2024-01-24T21:46:34.916Z,100590.31
2024-01-24T21:49:01.569Z,100582.94
2024-01-24T21:51:28.190Z,100582.25
2024-01-24T21:53:54.686Z,100576.09
2024-01-24T21:56:21.296Z,100584.03
2024-01-24T21:58:49.218Z,100595.00
2024-01-24T22:01:16.752Z,100594.88
2024-01-24T22:03:43.702Z,100600.53
2024-01-24T22:06:10.334Z,100591.50
2024-01-24T22:08:37.105Z,100600.72
2024-01-24T22:11:03.867Z,100601.28
2024-01-24T22:13:30.317Z,100588.47
2024-01-24T22:15:58.048Z,100609.47
2024-01-24T22:18:30.182Z,100617.41
2024-01-24T22:21:03.693Z,100618.38
2024-01-24T22:23:30.125Z,100614.06
2024-01-24T22:25:56.721Z,100604.53
2024-01-24T22:28:23.239Z,100615.19
2024-01-24T22:30:49.996Z,100606.13
2024-01-24T22:33:17.244Z,100610.25
2024-01-24T22:35:43.900Z,100606.22
2024-01-24T22:38:10.350Z,100603.63
2024-01-24T22:40:36.955Z,100612.72
2024-01-24T22:43:03.738Z,100610.41
2024-01-24T22:45:30.522Z,100608.84
2024-01-24T22:47:59.675Z,100607.78
2024-01-24T22:50:26.562Z,100617.41
2024-01-24T22:52:53.502Z,100614.56
2024-01-24T22:55:20.101Z,100611.69
2024-01-24T22:57:50.318Z,100623.19
2024-01-24T23:00:18.746Z,100624.81
2024-01-24T23:02:49.471Z,100629.28
2024-01-24T23:05:17.208Z,100635.50
2024-01-24T23:07:44.244Z,100629.91
2024-01-24T23:10:11.397Z,100640.69
2024-01-24T23:12:38.604Z,100623.44
2024-01-24T23:15:06.435Z,100636.06
2024-01-24T23:17:33.117Z,100636.31
2024-01-24T23:19:59.894Z,100627.75
2024-01-24T23:22:27.826Z,100614.81
2024-01-24T23:24:54.568Z,100626.41
2024-01-24T23:27:21.292Z,100621.47
2024-01-24T23:29:47.780Z,100614.69
2024-01-24T23:32:14.474Z,100625.28
2024-01-24T23:34:41.003Z,100630.41
2024-01-24T23:37:07.765Z,100622.44
2024-01-24T23:39:34.347Z,100622.69
2024-01-24T23:42:01.316Z,100638.31
2024-01-24T23:44:27.740Z,100635.03
2024-01-24T23:46:54.355Z,100642.56
2024-01-24T23:49:21.081Z,100647.44
2024-01-24T23:51:48.074Z,100638.13
2024-01-24T23:54:14.566Z,100646.06
2024-01-24T23:56:41.183Z,100641.00
2024-01-24T23:59:09.249Z,100654.69
